Time,TemperatureF,DewpointF,PressureIn,WindDirection,WindDirectionDegrees,WindSpeedMPH,WindSpeedGustMPH,Humidity,HourlyPrecipIn,Conditions,Clouds,dailyrainin,SolarRadiationWatts/m^2,SoftwareType,DateUTC
2013-04-30 00:42:00,28.0,20.0,-100.00,West,266,4.0,15.0,73,-99.99,,,0.07,0.000000,,2013-04-30 06:42:00,
2013-04-30 00:52:00,28.0,20.0,-100.00,West,266,4.0,15.0,73,-99.99,,,0.07,0.000000,,2013-04-30 06:52:00,
2013-04-30 01:01:00,28.0,20.0,-100.00,West,266,4.0,15.0,73,-99.99,,,0.07,0.000000,,2013-04-30 07:01:00,
2013-04-30 01:11:00,28.0,20.0,-100.00,West,266,4.0,15.0,73,-99.99,,,0.07,0.000000,,2013-04-30 07:11:00,
2013-04-30 01:42:00,27.0,23.0,-100.00,West,275,4.0,18.0,83,0.00,,,0.07,0.000000,,2013-04-30 07:42:00,
2013-04-30 01:52:00,27.0,23.0,-100.00,West,275,4.0,18.0,83,0.00,,,0.07,0.000000,,2013-04-30 07:52:00,
2013-04-30 02:02:00,27.0,23.0,-100.00,West,275,4.0,18.0,83,0.00,,,0.07,0.000000,,2013-04-30 08:02:00,
2013-04-30 02:11:00,27.0,23.0,-100.00,West,275,4.0,18.0,83,0.00,,,0.07,0.000000,,2013-04-30 08:11:00,
2013-04-30 02:42:00,26.0,21.0,-100.00,West,269,6.0,14.0,81,0.00,,,0.07,0.000000,,2013-04-30 08:42:00,
2013-04-30 02:52:00,26.0,21.0,-100.00,West,269,6.0,14.0,81,0.00,,,0.07,0.000000,,2013-04-30 08:52:00,
2013-04-30 03:01:00,26.0,21.0,-100.00,West,269,6.0,14.0,81,0.00,,,0.07,0.000000,,2013-04-30 09:01:00,
2013-04-30 03:11:00,26.0,21.0,-100.00,West,269,6.0,14.0,81,0.00,,,0.07,0.000000,,2013-04-30 09:11:00,
2013-04-30 04:41:00,25.0,20.0,-100.00,West,262,5.0,11.0,80,-99.99,,,0.07,0.000000,,2013-04-30 10:41:00,
2013-04-30 04:52:00,25.0,20.0,-100.00,West,262,5.0,11.0,80,-99.99,,,0.07,0.000000,,2013-04-30 10:52:00,
2013-04-30 05:01:00,25.0,20.0,-100.00,West,262,5.0,11.0,80,-99.99,,,0.07,0.000000,,2013-04-30 11:01:00,
2013-04-30 05:11:00,25.0,20.0,-100.00,West,262,5.0,11.0,80,-99.99,,,0.07,0.000000,,2013-04-30 11:11:00,
2013-04-30 05:42:00,24.0,17.0,-100.00,WSW,258,5.0,9.0,73,0.00,,,0.07,0.000000,,2013-04-30 11:42:00,
2013-04-30 05:51:00,24.0,17.0,-100.00,WSW,258,5.0,9.0,73,0.00,,,0.07,0.000000,,2013-04-30 11:51:00,
2013-04-30 06:01:00,24.0,17.0,-100.00,WSW,258,5.0,9.0,73,0.00,,,0.07,0.000000,,2013-04-30 12:01:00,
2013-04-30 06:11:00,24.0,17.0,-100.00,WSW,258,5.0,9.0,73,0.00,,,0.07,0.000000,,2013-04-30 12:11:00,
2013-04-30 07:41:00,21.0,15.0,-100.00,NNW,335,2.0,8.0,76,-99.99,,,-99.99,19.000000,,2013-04-30 13:41:00,
2013-04-30 07:52:00,21.0,15.0,-100.00,NNW,335,2.0,8.0,76,-99.99,,,-99.99,19.000000,,2013-04-30 13:52:00,
2013-04-30 08:01:00,21.0,15.0,-100.00,NNW,335,2.0,8.0,76,-99.99,,,-99.99,19.000000,,2013-04-30 14:01:00,
2013-04-30 08:11:00,21.0,15.0,-100.00,NNW,335,2.0,8.0,76,-99.99,,,-99.99,19.000000,,2013-04-30 14:11:00,
2013-04-30 10:42:00,29.0,12.0,-100.00,SW,231,6.0,14.0,48,-99.99,,,0.09,271.000000,,2013-04-30 16:42:00,
2013-04-30 10:52:00,29.0,12.0,-100.00,SW,231,6.0,14.0,48,-99.99,,,0.09,271.000000,,2013-04-30 16:52:00,
2013-04-30 11:02:00,29.0,12.0,-100.00,SW,231,6.0,14.0,48,-99.99,,,0.09,271.000000,,2013-04-30 17:02:00,
2013-04-30 11:12:00,29.0,12.0,-100.00,SW,231,6.0,14.0,48,-99.99,,,0.09,271.000000,,2013-04-30 17:12:00,
2013-04-30 11:42:00,34.0,11.0,-100.00,NW,318,6.0,20.0,38,0.00,,,0.09,945.000000,,2013-04-30 17:42:00,
2013-04-30 11:52:00,34.0,11.0,-100.00,NW,318,6.0,20.0,38,0.00,,,0.09,945.000000,,2013-04-30 17:52:00,
2013-04-30 12:01:00,34.0,11.0,-100.00,NW,318,6.0,20.0,38,0.00,,,0.09,945.000000,,2013-04-30 18:01:00,
2013-04-30 12:11:00,34.0,11.0,-100.00,NW,318,6.0,20.0,38,0.00,,,0.09,945.000000,,2013-04-30 18:11:00,
2013-04-30 12:42:00,30.0,9.0,-100.00,West,265,8.0,18.0,40,0.00,,,0.09,590.000000,,2013-04-30 18:42:00,
2013-04-30 12:52:00,30.0,9.0,-100.00,West,265,8.0,18.0,40,0.00,,,0.09,590.000000,,2013-04-30 18:52:00,
2013-04-30 13:01:00,30.0,9.0,-100.00,West,265,8.0,18.0,40,0.00,,,0.09,590.000000,,2013-04-30 19:01:00,
2013-04-30 13:11:00,30.0,9.0,-100.00,West,265,8.0,18.0,40,0.00,,,0.09,590.000000,,2013-04-30 19:11:00,
2013-04-30 13:42:00,31.0,8.0,-100.00,SSE,159,6.0,24.0,37,0.00,,,0.09,384.000000,,2013-04-30 19:42:00,
2013-04-30 13:52:00,31.0,8.0,-100.00,SSE,159,6.0,24.0,37,0.00,,,0.09,384.000000,,2013-04-30 19:52:00,
2013-04-30 14:02:00,31.0,8.0,-100.00,SSE,159,6.0,24.0,37,0.00,,,0.09,384.000000,,2013-04-30 20:02:00,
2013-04-30 14:11:00,31.0,8.0,-100.00,SSE,159,6.0,24.0,37,0.00,,,0.09,384.000000,,2013-04-30 20:11:00,
2013-04-30 14:42:00,32.0,7.0,-100.00,NNW,338,5.0,20.0,34,0.00,,,0.09,485.000000,,2013-04-30 20:42:00,
2013-04-30 14:52:00,32.0,7.0,-100.00,NNW,338,5.0,20.0,34,0.00,,,0.09,485.000000,,2013-04-30 20:52:00,
2013-04-30 15:01:00,32.0,7.0,-100.00,NNW,338,5.0,20.0,34,0.00,,,0.09,485.000000,,2013-04-30 21:01:00,
2013-04-30 15:11:00,32.0,7.0,-100.00,NNW,338,5.0,20.0,34,0.00,,,0.09,485.000000,,2013-04-30 21:11:00,
2013-04-30 15:42:00,32.0,7.0,-100.00,West,260,7.0,17.0,35,0.00,,,0.09,490.000000,,2013-04-30 21:42:00,
2013-04-30 15:53:00,32.0,7.0,-100.00,West,260,7.0,17.0,35,0.00,,,0.09,490.000000,,2013-04-30 21:53:00,
2013-04-30 16:02:00,32.0,7.0,-100.00,West,260,7.0,17.0,35,0.00,,,0.09,490.000000,,2013-04-30 22:02:00,
2013-04-30 16:12:00,32.0,7.0,-100.00,West,260,7.0,17.0,35,0.00,,,0.09,490.000000,,2013-04-30 22:12:00,
2013-04-30 16:42:00,25.0,21.0,-100.00,WSW,246,5.0,22.0,86,0.00,,,0.09,133.000000,,2013-04-30 22:42:00,
2013-04-30 16:53:00,25.0,21.0,-100.00,WSW,246,5.0,22.0,86,0.00,,,0.09,133.000000,,2013-04-30 22:53:00,
2013-04-30 17:02:00,25.0,21.0,-100.00,WSW,246,5.0,22.0,86,0.00,,,0.09,133.000000,,2013-04-30 23:02:00,
2013-04-30 17:11:00,25.0,21.0,-100.00,WSW,246,5.0,22.0,86,0.00,,,0.09,133.000000,,2013-04-30 23:11:00,
2013-04-30 17:42:00,26.0,22.0,-100.00,WSW,241,3.0,11.0,86,0.00,,,0.09,90.000000,,2013-04-30 23:42:00,
2013-04-30 17:52:00,26.0,22.0,-100.00,WSW,241,3.0,11.0,86,0.00,,,0.09,90.000000,,2013-04-30 23:52:00,
2013-04-30 18:01:00,26.0,22.0,-100.00,WSW,241,3.0,11.0,86,0.00,,,0.09,90.000000,,2013-05-01 00:01:00,
2013-04-30 18:11:00,26.0,22.0,-100.00,WSW,241,3.0,11.0,86,0.00,,,0.09,90.000000,,2013-05-01 00:11:00,
2013-04-30 18:32:00,25.0,22.0,-100.00,WSW,245,2.0,8.0,87,0.00,,,0.08,38.000000,,2013-05-01 00:32:00,
2013-04-30 18:42:00,25.0,22.0,-100.00,WSW,245,2.0,8.0,87,0.00,,,0.08,38.000000,,2013-05-01 00:42:00,
2013-04-30 18:52:00,25.0,22.0,-100.00,WSW,245,2.0,8.0,87,0.00,,,0.08,38.000000,,2013-05-01 00:52:00,
2013-04-30 19:01:00,25.0,22.0,-100.00,WSW,245,2.0,8.0,87,0.00,,,0.08,38.000000,,2013-05-01 01:01:00,
2013-04-30 19:11:00,25.0,22.0,-100.00,WSW,245,2.0,8.0,87,0.00,,,0.08,38.000000,,2013-05-01 01:11:00,
2013-04-30 19:42:00,24.0,22.0,-100.00,South,178,2.0,4.0,90,0.00,,,0.04,10.000000,,2013-05-01 01:42:00,
2013-04-30 19:52:00,24.0,22.0,-100.00,South,178,2.0,4.0,90,0.00,,,0.04,10.000000,,2013-05-01 01:52:00,
2013-04-30 20:02:00,24.0,22.0,-100.00,South,178,2.0,4.0,90,0.00,,,0.04,10.000000,,2013-05-01 02:02:00,
2013-04-30 20:11:00,24.0,22.0,-100.00,South,178,2.0,4.0,90,0.00,,,0.04,10.000000,,2013-05-01 02:11:00,
2013-04-30 20:42:00,23.0,21.0,-100.00,ESE,108,2.0,7.0,91,0.00,,,0.02,7.000000,,2013-05-01 02:42:00,
2013-04-30 20:52:00,23.0,21.0,-100.00,ESE,108,2.0,7.0,91,0.00,,,0.02,7.000000,,2013-05-01 02:52:00,
2013-04-30 21:01:00,23.0,21.0,-100.00,ESE,108,2.0,7.0,91,0.00,,,0.02,7.000000,,2013-05-01 03:01:00,
2013-04-30 21:11:00,23.0,21.0,-100.00,ESE,108,2.0,7.0,91,0.00,,,0.02,7.000000,,2013-05-01 03:11:00,
2013-04-30 21:43:00,22.0,20.0,-100.00,ESE,107,0.0,5.0,92,0.00,,,-99.99,0.000000,,2013-05-01 03:43:00,
2013-04-30 21:53:00,22.0,20.0,-100.00,ESE,107,0.0,5.0,92,0.00,,,-99.99,0.000000,,2013-05-01 03:53:00,
2013-04-30 22:03:00,22.0,20.0,-100.00,ESE,107,0.0,5.0,92,0.00,,,-99.99,0.000000,,2013-05-01 04:03:00,
2013-04-30 22:12:00,22.0,20.0,-100.00,ESE,107,0.0,5.0,92,0.00,,,-99.99,0.000000,,2013-05-01 04:12:00,
2013-04-30 22:32:00,22.0,20.0,-100.00,ESE,109,5.0,9.0,90,0.00,,,0.02,0.000000,,2013-05-01 04:32:00,
2013-04-30 22:43:00,22.0,20.0,-100.00,ESE,109,5.0,9.0,90,0.00,,,0.02,0.000000,,2013-05-01 04:43:00,
2013-04-30 22:52:00,22.0,20.0,-100.00,ESE,109,5.0,9.0,90,0.00,,,0.02,0.000000,,2013-05-01 04:52:00,
2013-04-30 23:02:00,22.0,20.0,-100.00,ESE,109,5.0,9.0,90,0.00,,,0.02,0.000000,,2013-05-01 05:02:00,
2013-04-30 23:11:00,22.0,20.0,-100.00,ESE,109,5.0,9.0,90,0.00,,,0.02,0.000000,,2013-05-01 05:11:00,
2013-04-30 23:42:00,21.0,18.0,-100.00,East,97,5.0,13.0,89,0.00,,,-99.99,0.000000,,2013-05-01 05:42:00,
2013-04-30 23:52:00,21.0,18.0,-100.00,East,97,5.0,13.0,89,0.00,,,-99.99,0.000000,,2013-05-01 05:52:00,